createdAt,value
2017-01-07T00:00:08.462Z,973.37
2017-01-07T00:01:08.088Z,973.38
2017-01-07T00:02:07.851Z,973.40
2017-01-07T00:03:07.658Z,973.35
2017-01-07T00:04:08.786Z,973.35
2017-01-07T00:05:07.341Z,973.34
2017-01-07T00:06:07.912Z,973.39
2017-01-07T00:07:07.723Z,973.37
2017-01-07T00:08:08.405Z,973.35
2017-01-07T00:09:07.957Z,973.32
2017-01-07T00:10:07.827Z,973.29
2017-01-07T00:11:07.435Z,973.26
2017-01-07T00:12:08.164Z,973.28
2017-01-07T00:13:07.604Z,973.27
2017-01-07T00:14:08.211Z,973.28
2017-01-07T00:15:07.737Z,973.27
2017-01-07T00:16:07.796Z,973.23
2017-01-07T00:17:07.477Z,973.25
2017-01-07T00:18:08.103Z,973.24
2017-01-07T00:19:07.886Z,973.28
2017-01-07T00:20:07.439Z,973.27
2017-01-07T00:21:08.121Z,973.23
2017-01-07T00:22:07.629Z,973.21
2017-01-07T00:23:08.452Z,973.19
2017-01-07T00:24:07.965Z,973.22
2017-01-07T00:25:07.415Z,973.21
2017-01-07T00:26:08.033Z,973.18
2017-01-07T00:27:07.603Z,973.19
2017-01-07T00:28:08.035Z,973.21
2017-01-07T00:29:07.519Z,973.25
2017-01-07T00:30:08.109Z,973.23
2017-01-07T00:31:07.991Z,973.25
2017-01-07T00:32:07.463Z,973.20
2017-01-07T00:33:08.026Z,973.22
2017-01-07T00:34:07.480Z,973.21
2017-01-07T00:35:08.108Z,973.22
2017-01-07T00:36:07.902Z,973.18
2017-01-07T00:37:07.405Z,973.25
2017-01-07T00:38:07.915Z,973.21
2017-01-07T00:39:07.461Z,973.24
2017-01-07T00:40:08.190Z,973.23
2017-01-07T00:41:08.041Z,973.30
2017-01-07T00:42:07.451Z,973.30
2017-01-07T00:43:08.017Z,973.26
2017-01-07T00:44:07.553Z,973.29
2017-01-07T00:45:08.077Z,973.23
2017-01-07T00:46:07.619Z,973.27
2017-01-07T00:47:08.100Z,973.25
2017-01-07T00:48:07.632Z,973.23
2017-01-07T00:49:08.211Z,973.24
2017-01-07T00:50:07.880Z,973.21
2017-01-07T00:51:07.749Z,973.26
2017-01-07T00:52:07.750Z,973.22
2017-01-07T00:53:08.367Z,973.22
2017-01-07T00:54:07.991Z,973.26
2017-01-07T00:55:07.512Z,973.24
2017-01-07T00:56:08.111Z,973.20
2017-01-07T00:57:07.627Z,973.17
2017-01-07T00:58:08.127Z,973.19
2017-01-07T00:59:07.860Z,973.12
2017-01-07T01:00:07.622Z,973.13
2017-01-07T01:01:08.551Z,973.09
2017-01-07T01:02:07.985Z,973.09
2017-01-07T01:03:07.595Z,973.05
2017-01-07T01:04:07.887Z,973.05
2017-01-07T01:05:07.438Z,973.10
2017-01-07T01:06:08.429Z,973.08
2017-01-07T01:07:08.167Z,973.10
2017-01-07T01:08:07.676Z,973.09
2017-01-07T01:09:07.595Z,973.07
2017-01-07T01:10:08.038Z,973.08
2017-01-07T01:11:07.756Z,973.10
2017-01-07T01:12:07.653Z,973.07
2017-01-07T01:13:08.275Z,973.05
2017-01-07T01:14:07.809Z,973.03
2017-01-07T01:15:07.707Z,973.01
2017-01-07T01:16:08.239Z,972.98
2017-01-07T01:17:08.073Z,972.98
2017-01-07T01:18:07.714Z,972.95
2017-01-07T01:19:08.181Z,972.93
2017-01-07T01:20:08.043Z,972.92
2017-01-07T01:21:08.075Z,972.99
2017-01-07T01:22:07.609Z,973.01
2017-01-07T01:23:08.148Z,972.96
2017-01-07T01:24:07.593Z,972.98
2017-01-07T01:25:07.891Z,972.91
2017-01-07T01:26:07.327Z,972.92
2017-01-07T01:27:07.614Z,972.99
2017-01-07T01:28:07.897Z,972.90
2017-01-07T01:29:07.804Z,972.92
2017-01-07T01:30:07.225Z,972.90
2017-01-07T01:31:07.715Z,972.86
2017-01-07T01:32:08.515Z,972.84
2017-01-07T01:33:08.346Z,972.86
2017-01-07T01:34:07.797Z,972.86
2017-01-07T01:35:07.863Z,972.83
2017-01-07T01:36:07.417Z,972.80
2017-01-07T01:37:08.059Z,972.79
2017-01-07T01:38:07.554Z,972.80
2017-01-07T01:39:08.009Z,972.83
2017-01-07T01:40:07.885Z,972.79
2017-01-07T01:41:07.455Z,972.72
2017-01-07T01:42:08.000Z,972.76
2017-01-07T01:43:07.512Z,972.75
2017-01-07T01:44:08.071Z,972.75
2017-01-07T01:45:07.946Z,972.73
2017-01-07T01:46:07.374Z,972.69
2017-01-07T01:47:07.613Z,972.70
2017-01-07T01:48:08.198Z,972.68
2017-01-07T01:49:07.663Z,972.65
2017-01-07T01:50:08.262Z,972.67
2017-01-07T01:51:07.703Z,972.64
2017-01-07T01:52:08.240Z,972.69
2017-01-07T01:53:07.766Z,972.68
2017-01-07T01:54:07.909Z,972.65
2017-01-07T01:55:07.698Z,972.68
2017-01-07T01:56:08.580Z,972.68
2017-01-07T01:57:08.203Z,972.67
2017-01-07T01:58:07.983Z,972.62
2017-01-07T01:59:07.422Z,972.60
2017-01-07T02:00:07.483Z,972.58
2017-01-07T02:01:08.278Z,972.59
2017-01-07T02:02:07.865Z,972.57
2017-01-07T02:03:07.677Z,972.53
2017-01-07T02:04:08.183Z,972.52
2017-01-07T02:05:07.890Z,972.53
2017-01-07T02:06:07.474Z,972.52
2017-01-07T02:07:08.372Z,972.54
2017-01-07T02:08:07.371Z,972.49
2017-01-07T02:09:07.944Z,972.50
2017-01-07T02:10:07.510Z,972.55
2017-01-07T02:11:08.005Z,972.56
2017-01-07T02:12:07.793Z,972.51
2017-01-07T02:13:07.424Z,972.51
2017-01-07T02:14:07.976Z,972.49
2017-01-07T02:15:07.797Z,972.54
2017-01-07T02:16:07.528Z,972.49
2017-01-07T02:17:08.451Z,972.50
2017-01-07T02:18:08.016Z,972.55
2017-01-07T02:19:07.634Z,972.49
2017-01-07T02:20:08.232Z,972.53
2017-01-07T02:21:07.838Z,972.54
2017-01-07T02:22:07.523Z,972.56
2017-01-07T02:23:08.217Z,972.58
2017-01-07T02:24:07.743Z,972.60
2017-01-07T02:25:08.415Z,972.58
2017-01-07T02:26:08.338Z,972.59
2017-01-07T02:27:08.183Z,972.63
2017-01-07T02:28:07.787Z,972.57
2017-01-07T02:29:07.640Z,972.56
2017-01-07T02:30:08.121Z,972.57
2017-01-07T02:31:07.621Z,972.56
2017-01-07T02:32:08.084Z,972.57
2017-01-07T02:33:07.858Z,972.51
2017-01-07T02:34:07.350Z,972.52
2017-01-07T02:35:08.184Z,972.50
2017-01-07T02:36:07.854Z,972.45
2017-01-07T02:37:07.688Z,972.44
2017-01-07T02:38:08.618Z,972.46
2017-01-07T02:39:08.446Z,972.44
2017-01-07T02:40:07.962Z,972.43
2017-01-07T02:41:07.500Z,972.43
2017-01-07T02:42:08.405Z,972.39
2017-01-07T02:43:07.970Z,972.38
2017-01-07T02:44:07.568Z,972.37
2017-01-07T02:45:08.062Z,972.37
2017-01-07T02:46:07.654Z,972.41
2017-01-07T02:47:07.755Z,972.41
2017-01-07T02:48:07.915Z,972.44
2017-01-07T02:49:07.467Z,972.41
2017-01-07T02:50:07.999Z,972.44
2017-01-07T02:51:07.959Z,972.45
2017-01-07T02:52:07.717Z,972.46
2017-01-07T02:53:08.256Z,972.52
2017-01-07T02:54:07.805Z,972.44
2017-01-07T02:55:07.560Z,972.45
2017-01-07T02:56:08.179Z,972.43
2017-01-07T02:57:07.997Z,972.45
2017-01-07T02:58:07.757Z,972.46
2017-01-07T02:59:07.292Z,972.45
2017-01-07T03:00:07.606Z,972.46
2017-01-07T03:01:08.427Z,972.47
2017-01-07T03:02:08.003Z,972.44
2017-01-07T03:03:07.505Z,972.52
2017-01-07T03:04:07.649Z,972.47
2017-01-07T03:05:08.187Z,972.35
2017-01-07T03:06:07.679Z,972.35
2017-01-07T03:07:08.557Z,972.32
2017-01-07T03:08:08.140Z,972.33
2017-01-07T03:09:07.598Z,972.35
2017-01-07T03:10:08.151Z,972.39
2017-01-07T03:11:07.616Z,972.37
2017-01-07T03:12:08.269Z,972.41
2017-01-07T03:13:07.795Z,972.39
2017-01-07T03:14:07.566Z,972.46
2017-01-07T03:15:08.067Z,972.42
2017-01-07T03:16:07.786Z,972.36
2017-01-07T03:17:07.584Z,972.38
2017-01-07T03:18:07.574Z,972.35
2017-01-07T03:19:08.144Z,972.42
2017-01-07T03:20:07.991Z,972.37
2017-01-07T03:21:07.898Z,972.38
2017-01-07T03:22:07.628Z,972.44
2017-01-07T03:23:08.103Z,972.51
2017-01-07T03:24:08.052Z,972.45
2017-01-07T03:25:07.604Z,972.43
2017-01-07T03:26:08.078Z,972.39
2017-01-07T03:27:07.705Z,972.40
2017-01-07T03:28:08.246Z,972.36
2017-01-07T03:29:07.755Z,972.38
2017-01-07T03:30:07.345Z,972.37
2017-01-07T03:31:07.836Z,972.35
2017-01-07T03:32:07.560Z,972.38
2017-01-07T03:33:08.244Z,972.42
2017-01-07T03:34:08.124Z,972.42
2017-01-07T03:35:07.988Z,972.39
2017-01-07T03:36:07.653Z,972.44
2017-01-07T03:37:08.206Z,972.41
2017-01-07T03:38:07.863Z,972.41
2017-01-07T03:39:07.404Z,972.42
2017-01-07T03:40:07.904Z,972.40
2017-01-07T03:41:07.417Z,972.32
2017-01-07T03:42:08.117Z,972.32
2017-01-07T03:43:07.815Z,972.37
2017-01-07T03:44:07.375Z,972.38
2017-01-07T03:45:07.943Z,972.38
2017-01-07T03:46:07.433Z,972.35
2017-01-07T03:47:07.979Z,972.39
2017-01-07T03:48:07.492Z,972.34
2017-01-07T03:49:08.037Z,972.29
2017-01-07T03:50:07.581Z,972.37
2017-01-07T03:51:08.224Z,972.37
2017-01-07T03:52:07.787Z,972.37
2017-01-07T03:53:07.686Z,972.40
2017-01-07T03:54:08.262Z,972.41
2017-01-07T03:55:08.079Z,972.36
2017-01-07T03:56:07.765Z,972.38
2017-01-07T03:57:07.429Z,972.30
2017-01-07T03:58:08.057Z,972.33
2017-01-07T03:59:07.610Z,972.27
2017-01-07T04:00:08.348Z,972.23
2017-01-07T04:01:07.931Z,972.22
2017-01-07T04:02:07.616Z,972.20
2017-01-07T04:03:08.459Z,972.19
2017-01-07T04:04:08.331Z,972.17
2017-01-07T04:05:08.167Z,972.16
2017-01-07T04:06:07.768Z,972.17
2017-01-07T04:07:07.600Z,972.14
2017-01-07T04:08:07.845Z,972.12
2017-01-07T04:09:07.467Z,972.11
2017-01-07T04:10:08.045Z,972.11
2017-01-07T04:11:07.566Z,972.12
2017-01-07T04:12:08.191Z,972.12
2017-01-07T04:13:07.729Z,972.19
2017-01-07T04:14:08.267Z,972.19
2017-01-07T04:15:08.048Z,972.20
2017-01-07T04:16:08.469Z,972.13
2017-01-07T04:17:13.694Z,972.14
2017-01-07T04:18:07.250Z,972.16
2017-01-07T04:19:07.727Z,972.14
2017-01-07T04:20:08.343Z,972.18
2017-01-07T04:21:08.169Z,972.16
2017-01-07T04:22:07.665Z,972.16
2017-01-07T04:23:08.570Z,972.12
2017-01-07T04:24:08.157Z,972.13
2017-01-07T04:25:07.999Z,972.20
2017-01-07T04:26:07.565Z,972.19
2017-01-07T04:27:08.059Z,972.16
2017-01-07T04:28:07.541Z,972.15
2017-01-07T04:29:08.087Z,972.17
2017-01-07T04:30:07.661Z,972.10
2017-01-07T04:31:08.181Z,972.10
2017-01-07T04:32:07.676Z,972.06
2017-01-07T04:33:08.135Z,972.03
2017-01-07T04:34:07.661Z,972.06
2017-01-07T04:35:08.439Z,972.08
2017-01-07T04:36:08.191Z,972.08
2017-01-07T04:37:07.701Z,972.08
2017-01-07T04:38:08.108Z,972.03
2017-01-07T04:39:08.467Z,972.01
2017-01-07T04:40:08.055Z,972.00
2017-01-07T04:41:07.635Z,971.97
2017-01-07T04:42:08.290Z,972.00
2017-01-07T04:43:07.760Z,971.87
2017-01-07T04:44:07.351Z,971.90
2017-01-07T04:45:08.315Z,971.89
2017-01-07T04:46:07.915Z,971.87
2017-01-07T04:47:07.732Z,971.97
2017-01-07T04:48:08.540Z,971.93
2017-01-07T04:49:08.038Z,971.92
2017-01-07T04:50:07.597Z,971.90
2017-01-07T04:51:08.140Z,971.88
2017-01-07T04:52:07.675Z,971.86
2017-01-07T04:53:08.210Z,971.89
2017-01-07T04:54:07.697Z,971.85
2017-01-07T04:55:08.223Z,971.85
2017-01-07T04:56:07.761Z,971.80
2017-01-07T04:57:07.261Z,971.81
2017-01-07T04:58:07.817Z,971.82
2017-01-07T04:59:07.243Z,971.85
2017-01-07T05:00:07.784Z,971.90
2017-01-07T05:01:07.350Z,971.97
2017-01-07T05:02:07.867Z,971.98
2017-01-07T05:03:07.712Z,971.99
2017-01-07T05:04:08.301Z,972.01
2017-01-07T05:05:07.782Z,971.95
2017-01-07T05:06:07.621Z,971.94
2017-01-07T05:07:08.093Z,971.94
2017-01-07T05:08:07.575Z,971.95
2017-01-07T05:09:08.100Z,971.92
2017-01-07T05:10:07.649Z,971.91
2017-01-07T05:11:08.497Z,971.85
2017-01-07T05:12:08.112Z,971.82
2017-01-07T05:13:07.703Z,971.78
2017-01-07T05:14:08.190Z,971.73
2017-01-07T05:15:08.008Z,971.69
2017-01-07T05:16:07.583Z,971.75
2017-01-07T05:17:08.321Z,971.66
2017-01-07T05:18:07.959Z,971.60
2017-01-07T05:19:07.441Z,971.57
2017-01-07T05:20:08.022Z,971.59
2017-01-07T05:21:07.888Z,971.63
2017-01-07T05:22:07.368Z,971.58
2017-01-07T05:23:07.908Z,971.60
2017-01-07T05:24:07.704Z,971.60
2017-01-07T05:25:11.129Z,971.54
2017-01-07T05:26:08.127Z,971.53
2017-01-07T05:27:08.004Z,971.56
2017-01-07T05:28:07.550Z,971.57
2017-01-07T05:29:08.356Z,971.62
2017-01-07T05:30:08.179Z,971.65
2017-01-07T05:31:07.711Z,971.70
2017-01-07T05:32:07.983Z,971.75
2017-01-07T05:33:07.410Z,971.75
2017-01-07T05:34:08.063Z,971.70
2017-01-07T05:35:07.829Z,971.72
2017-01-07T05:36:07.345Z,971.73
2017-01-07T05:37:08.222Z,971.73
2017-01-07T05:38:08.146Z,971.81
2017-01-07T05:39:07.674Z,971.82
2017-01-07T05:40:07.772Z,971.80
2017-01-07T05:41:07.274Z,971.76
2017-01-07T05:42:08.128Z,971.68
2017-01-07T05:43:07.741Z,971.53
2017-01-07T05:44:08.209Z,971.46
2017-01-07T05:45:07.640Z,971.45
2017-01-07T05:46:08.177Z,971.43
2017-01-07T05:47:08.017Z,971.43
2017-01-07T05:48:07.884Z,971.42
2017-01-07T05:49:07.757Z,971.41
2017-01-07T05:50:07.418Z,971.46
2017-01-07T05:51:08.048Z,971.48
2017-01-07T05:52:07.707Z,971.61
2017-01-07T05:53:07.230Z,971.60
2017-01-07T05:54:07.806Z,971.66
2017-01-07T05:55:07.595Z,971.66
2017-01-07T05:56:08.133Z,971.63
2017-01-07T05:57:07.663Z,971.58
2017-01-07T05:58:08.250Z,971.59
2017-01-07T05:59:07.754Z,971.58
2017-01-07T06:00:07.328Z,971.59
2017-01-07T06:01:08.162Z,971.60
2017-01-07T06:02:07.961Z,971.65
2017-01-07T06:03:07.462Z,971.61
2017-01-07T06:04:08.007Z,971.62
2017-01-07T06:05:07.519Z,971.67
2017-01-07T06:06:08.118Z,971.65
2017-01-07T06:07:07.820Z,971.65
2017-01-07T06:08:07.359Z,971.67
2017-01-07T06:09:08.226Z,971.66
2017-01-07T06:10:07.706Z,971.60
2017-01-07T06:11:08.255Z,971.58
2017-01-07T06:12:08.068Z,971.53
2017-01-07T06:13:07.685Z,971.59
2017-01-07T06:14:07.289Z,971.58
2017-01-07T06:15:07.878Z,971.62
2017-01-07T06:16:07.408Z,971.62
2017-01-07T06:17:08.060Z,971.57
2017-01-07T06:18:07.799Z,971.55
2017-01-07T06:19:07.301Z,971.52
2017-01-07T06:20:07.863Z,971.47
2017-01-07T06:21:07.750Z,971.43
2017-01-07T06:22:08.329Z,971.49
2017-01-07T06:23:08.062Z,971.42
2017-01-07T06:24:07.627Z,971.45
2017-01-07T06:25:08.212Z,971.43
2017-01-07T06:26:08.058Z,971.40
2017-01-07T06:27:07.608Z,971.43
2017-01-07T06:28:08.092Z,971.35
2017-01-07T06:29:07.671Z,971.40
2017-01-07T06:30:08.145Z,971.39
2017-01-07T06:31:07.673Z,971.42
2017-01-07T06:32:07.865Z,971.40
2017-01-07T06:33:07.332Z,971.38
2017-01-07T06:34:07.533Z,971.37
2017-01-07T06:35:08.105Z,971.44
2017-01-07T06:36:07.701Z,971.51
2017-01-07T06:37:08.299Z,971.44
2017-01-07T06:38:07.722Z,971.47
2017-01-07T06:39:07.762Z,971.43
2017-01-07T06:40:07.549Z,971.42
2017-01-07T06:41:08.175Z,971.38
2017-01-07T06:42:07.962Z,971.38
2017-01-07T06:43:07.499Z,971.39
2017-01-07T06:44:08.115Z,971.46
2017-01-07T06:45:07.617Z,971.44
2017-01-07T06:46:08.479Z,971.47
2017-01-07T06:47:08.038Z,971.47
2017-01-07T06:48:07.597Z,971.50
2017-01-07T06:49:08.152Z,971.56
2017-01-07T06:50:07.707Z,971.55
2017-01-07T06:51:08.400Z,971.55
2017-01-07T06:52:07.909Z,971.50
2017-01-07T06:53:07.458Z,971.48
2017-01-07T06:54:08.149Z,971.47
2017-01-07T06:55:07.718Z,971.41
2017-01-07T06:56:08.469Z,971.45
2017-01-07T06:57:08.025Z,971.42
2017-01-07T06:58:07.867Z,971.42
2017-01-07T06:59:07.368Z,971.41
2017-01-07T07:00:07.925Z,971.39
2017-01-07T07:01:07.396Z,971.39
2017-01-07T07:02:07.921Z,971.40
2017-01-07T07:03:07.460Z,971.39
2017-01-07T07:04:07.952Z,971.47
2017-01-07T07:05:07.500Z,971.39
2017-01-07T07:06:08.135Z,971.38
2017-01-07T07:07:07.743Z,971.40
2017-01-07T07:08:08.361Z,971.41
2017-01-07T07:09:08.158Z,971.42
2017-01-07T07:10:07.701Z,971.43
2017-01-07T07:11:08.257Z,971.42
2017-01-07T07:12:07.899Z,971.36
2017-01-07T07:13:07.750Z,971.37
2017-01-07T07:14:08.346Z,971.42
2017-01-07T07:15:08.180Z,971.44
2017-01-07T07:16:07.720Z,971.50
2017-01-07T07:17:08.731Z,971.42
2017-01-07T07:18:08.241Z,971.43
2017-01-07T07:19:07.742Z,971.43
2017-01-07T07:20:08.254Z,971.41
2017-01-07T07:21:07.761Z,971.45
2017-01-07T07:22:07.340Z,971.50
2017-01-07T07:23:07.884Z,971.53
2017-01-07T07:24:07.554Z,971.52
2017-01-07T07:25:08.408Z,971.58
2017-01-07T07:26:07.505Z,971.53
2017-01-07T07:27:08.012Z,971.53
2017-01-07T07:28:07.600Z,971.50
2017-01-07T07:29:08.147Z,971.56
2017-01-07T07:30:07.881Z,971.50
2017-01-07T07:31:07.443Z,971.51
2017-01-07T07:32:08.017Z,971.50
2017-01-07T07:33:07.530Z,971.51
2017-01-07T07:34:08.134Z,971.56
2017-01-07T07:35:07.954Z,971.57
2017-01-07T07:36:07.791Z,971.56
2017-01-07T07:37:07.372Z,971.57
2017-01-07T07:38:07.854Z,971.57
2017-01-07T07:39:07.470Z,971.57
2017-01-07T07:40:08.023Z,971.56
2017-01-07T07:41:07.703Z,971.63
2017-01-07T07:42:08.355Z,971.59
2017-01-07T07:43:07.930Z,971.59
2017-01-07T07:44:07.622Z,971.60
2017-01-07T07:45:08.093Z,971.54
2017-01-07T07:46:07.639Z,971.53
2017-01-07T07:47:08.175Z,971.55
2017-01-07T07:48:07.583Z,971.45
2017-01-07T07:49:08.115Z,971.48
2017-01-07T07:50:07.912Z,971.51
2017-01-07T07:51:07.571Z,971.53
2017-01-07T07:52:08.464Z,971.53
2017-01-07T07:53:08.075Z,971.60
2017-01-07T07:54:07.611Z,971.57
2017-01-07T07:55:08.234Z,971.59
2017-01-07T07:56:07.780Z,971.59
2017-01-07T07:57:07.310Z,971.54
2017-01-07T07:58:08.303Z,971.46
2017-01-07T07:59:07.915Z,971.53
2017-01-07T08:00:07.375Z,971.50
2017-01-07T08:01:08.138Z,971.41
2017-01-07T08:02:08.006Z,971.48
2017-01-07T08:03:07.507Z,971.42
2017-01-07T08:04:08.126Z,971.38
2017-01-07T08:05:07.715Z,971.36
2017-01-07T08:06:08.458Z,971.35
2017-01-07T08:07:08.286Z,971.36
2017-01-07T08:08:07.872Z,971.32
2017-01-07T08:09:07.515Z,971.29
2017-01-07T08:10:08.369Z,971.30
2017-01-07T08:11:08.236Z,971.30
2017-01-07T08:12:07.845Z,971.27
2017-01-07T08:13:07.288Z,971.30
2017-01-07T08:14:07.882Z,971.26
2017-01-07T08:15:07.408Z,971.21
2017-01-07T08:16:07.901Z,971.20
2017-01-07T08:17:07.786Z,971.20
2017-01-07T08:18:07.601Z,971.22
2017-01-07T08:19:08.286Z,971.20
2017-01-07T08:20:08.095Z,971.19
2017-01-07T08:21:07.877Z,971.19
2017-01-07T08:22:07.682Z,971.16
2017-01-07T08:23:08.247Z,971.16
2017-01-07T08:24:07.758Z,971.15
2017-01-07T08:25:07.255Z,971.14
2017-01-07T08:26:07.752Z,971.07
2017-01-07T08:27:07.568Z,971.02
2017-01-07T08:28:08.106Z,971.02
2017-01-07T08:29:08.014Z,971.00
2017-01-07T08:30:07.587Z,971.02
2017-01-07T08:31:08.087Z,970.97
2017-01-07T08:32:07.650Z,971.01
2017-01-07T08:33:08.109Z,971.02
2017-01-07T08:34:07.668Z,971.02
2017-01-07T08:35:08.497Z,971.01
2017-01-07T08:36:08.078Z,970.99
2017-01-07T08:37:07.555Z,970.97
2017-01-07T08:38:08.112Z,971.01
2017-01-07T08:39:07.965Z,971.01
2017-01-07T08:40:07.846Z,971.08
2017-01-07T08:41:07.378Z,971.06
2017-01-07T08:42:08.155Z,971.11
2017-01-07T08:43:07.701Z,971.16
2017-01-07T08:44:08.216Z,971.19
2017-01-07T08:45:07.763Z,971.16
2017-01-07T08:46:07.276Z,971.22
2017-01-07T08:47:07.786Z,971.21
2017-01-07T08:48:07.316Z,971.20
2017-01-07T08:49:07.840Z,971.25
2017-01-07T08:50:07.481Z,971.24
2017-01-07T08:51:08.172Z,971.26
2017-01-07T08:52:07.851Z,971.27
2017-01-07T08:53:07.384Z,971.24
2017-01-07T08:54:07.889Z,971.29
2017-01-07T08:55:07.767Z,971.29
2017-01-07T08:56:07.267Z,971.26
2017-01-07T08:57:07.757Z,971.30
2017-01-07T08:58:07.340Z,971.26
2017-01-07T08:59:07.904Z,971.25
2017-01-07T09:00:07.818Z,971.31
2017-01-07T09:01:07.400Z,971.36
2017-01-07T09:02:08.073Z,971.31
2017-01-07T09:03:07.936Z,971.35
2017-01-07T09:04:07.787Z,971.34
2017-01-07T09:05:07.681Z,971.39
2017-01-07T09:06:08.298Z,971.36
2017-01-07T09:07:07.903Z,971.41
2017-01-07T09:08:07.511Z,971.33
2017-01-07T09:09:08.050Z,971.35
2017-01-07T09:10:07.744Z,971.33
2017-01-07T09:11:08.328Z,971.34
2017-01-07T09:12:07.902Z,971.33
2017-01-07T09:13:07.752Z,971.24
2017-01-07T09:14:07.339Z,971.26
2017-01-07T09:15:08.137Z,971.26
2017-01-07T09:16:07.632Z,971.25
2017-01-07T09:17:08.301Z,971.24
2017-01-07T09:18:07.936Z,971.27
2017-01-07T09:19:07.845Z,971.27
2017-01-07T09:20:07.363Z,971.25
2017-01-07T09:21:07.922Z,971.23
2017-01-07T09:22:07.464Z,971.17
2017-01-07T09:23:08.029Z,971.08
2017-01-07T09:24:08.455Z,971.03
2017-01-07T09:25:08.213Z,971.07
2017-01-07T09:26:07.648Z,971.07
2017-01-07T09:27:08.126Z,971.08
2017-01-07T09:28:07.705Z,971.09
2017-01-07T09:29:08.290Z,971.13
2017-01-07T09:30:07.934Z,971.21
2017-01-07T09:31:07.541Z,971.10
2017-01-07T09:32:08.213Z,971.08
2017-01-07T09:34:07.800Z,971.06
2017-01-07T09:35:07.708Z,971.00
2017-01-07T09:36:08.435Z,971.01
2017-01-07T09:37:08.038Z,970.98
2017-01-07T09:38:07.628Z,971.00
2017-01-07T09:39:08.209Z,971.01
2017-01-07T09:40:07.589Z,970.97
2017-01-07T09:41:08.259Z,970.96
2017-01-07T09:42:07.845Z,970.98
2017-01-07T09:43:07.462Z,970.95
2017-01-07T09:44:08.004Z,970.98
2017-01-07T09:45:07.548Z,971.02
2017-01-07T09:46:08.168Z,971.02
2017-01-07T09:47:08.012Z,970.97
2017-01-07T09:48:07.667Z,970.97
2017-01-07T09:49:08.259Z,970.93
2017-01-07T09:50:07.952Z,970.90
2017-01-07T09:51:07.608Z,970.90
2017-01-07T09:52:08.130Z,970.92
2017-01-07T09:53:07.682Z,970.92
2017-01-07T09:54:08.471Z,970.93
2017-01-07T09:55:08.031Z,970.88
2017-01-07T09:56:07.623Z,970.86
2017-01-07T09:57:08.252Z,970.86
2017-01-07T09:58:08.054Z,970.91
2017-01-07T09:59:07.615Z,970.86
2017-01-07T10:00:08.407Z,970.91
2017-01-07T10:01:08.235Z,970.88
2017-01-07T10:02:07.719Z,970.84
2017-01-07T10:03:08.357Z,970.85
2017-01-07T10:04:08.104Z,970.86
2017-01-07T10:05:07.610Z,970.87
2017-01-07T10:06:09.715Z,970.86
2017-01-07T10:07:08.243Z,970.85
2017-01-07T10:08:07.775Z,970.87
2017-01-07T10:09:07.461Z,970.71
2017-01-07T10:10:08.211Z,970.73
2017-01-07T10:11:07.766Z,970.73
2017-01-07T10:12:07.338Z,970.63
2017-01-07T10:13:07.798Z,970.63
2017-01-07T10:14:07.376Z,970.61
2017-01-07T10:15:07.920Z,970.59
2017-01-07T10:16:08.451Z,970.53
2017-01-07T10:17:08.080Z,970.43
2017-01-07T10:18:07.794Z,970.40
2017-01-07T10:19:07.587Z,970.40
2017-01-07T10:20:08.154Z,970.39
2017-01-07T10:21:07.706Z,970.37
2017-01-07T10:22:08.242Z,970.38
2017-01-07T10:23:08.112Z,970.31
2017-01-07T10:24:07.658Z,970.31
2017-01-07T10:25:08.128Z,970.33
2017-01-07T10:26:07.941Z,970.26
2017-01-07T10:27:07.744Z,970.19
2017-01-07T10:28:08.292Z,970.22
2017-01-07T10:29:08.167Z,970.27
2017-01-07T10:30:07.845Z,970.22
2017-01-07T10:31:07.483Z,970.23
2017-01-07T10:32:08.199Z,970.24
2017-01-07T10:33:08.084Z,970.26
2017-01-07T10:34:07.681Z,970.26
2017-01-07T10:35:08.244Z,970.25
2017-01-07T10:36:08.017Z,970.27
2017-01-07T10:37:07.709Z,970.25
2017-01-07T10:38:08.629Z,970.20
2017-01-07T10:39:08.155Z,970.25
2017-01-07T10:40:07.644Z,970.22
2017-01-07T10:41:08.255Z,970.20
2017-01-07T10:42:07.805Z,970.16
2017-01-07T10:43:07.645Z,970.16
2017-01-07T10:44:08.305Z,970.13
2017-01-07T10:45:07.874Z,970.11
2017-01-07T10:46:07.380Z,970.14
2017-01-07T10:47:07.632Z,970.14
2017-01-07T10:48:08.422Z,970.13
2017-01-07T10:49:07.834Z,970.10
2017-01-07T10:50:07.324Z,970.08
2017-01-07T10:51:07.919Z,970.07
2017-01-07T10:52:07.514Z,970.07
2017-01-07T10:53:08.168Z,970.01
2017-01-07T10:54:07.624Z,970.00
2017-01-07T10:55:08.168Z,970.07
2017-01-07T10:56:07.740Z,970.04
2017-01-07T10:57:08.230Z,970.04
2017-01-07T10:58:08.048Z,969.99
2017-01-07T10:59:07.813Z,969.97
2017-01-07T11:00:07.566Z,970.00
2017-01-07T11:01:08.150Z,970.00
2017-01-07T11:02:07.940Z,969.99
2017-01-07T11:03:07.781Z,969.95
2017-01-07T11:04:07.481Z,969.98
2017-01-07T11:05:08.113Z,969.92
2017-01-07T11:06:07.647Z,969.90
2017-01-07T11:07:08.172Z,969.90
2017-01-07T11:08:07.661Z,969.87
2017-01-07T11:09:08.378Z,969.88
2017-01-07T11:10:08.045Z,969.84
2017-01-07T11:11:07.790Z,969.87
2017-01-07T11:12:07.605Z,969.83
2017-01-07T11:13:08.467Z,969.80
2017-01-07T11:14:07.671Z,969.80
2017-01-07T11:15:08.497Z,969.79
2017-01-07T11:16:08.270Z,969.77
2017-01-07T11:17:07.892Z,969.74
2017-01-07T11:18:07.411Z,969.72
2017-01-07T11:19:07.897Z,969.70
2017-01-07T11:20:07.410Z,969.73
2017-01-07T11:21:07.961Z,969.71
2017-01-07T11:22:07.467Z,969.67
2017-01-07T11:23:07.955Z,969.63
2017-01-07T11:24:07.516Z,969.62
2017-01-07T11:25:10.902Z,969.58
2017-01-07T11:26:08.019Z,969.61
2017-01-07T11:27:07.843Z,969.64
2017-01-07T11:28:07.330Z,969.58
2017-01-07T11:29:07.932Z,969.53
2017-01-07T11:30:07.761Z,969.45
2017-01-07T11:31:08.390Z,969.48
2017-01-07T11:32:07.921Z,969.49
2017-01-07T11:33:07.524Z,969.50
2017-01-07T11:34:08.362Z,969.41
2017-01-07T11:35:08.062Z,969.44
2017-01-07T11:36:07.951Z,969.46
2017-01-07T11:37:07.529Z,969.35
2017-01-07T11:38:08.070Z,969.37
2017-01-07T11:39:08.898Z,969.36
2017-01-07T11:40:08.472Z,969.30
2017-01-07T11:41:07.991Z,969.30
2017-01-07T11:42:07.875Z,969.20
2017-01-07T11:43:07.781Z,969.18
2017-01-07T11:44:07.291Z,969.19
2017-01-07T11:45:08.547Z,969.16
2017-01-07T11:46:08.276Z,969.18
2017-01-07T11:47:26.009Z,969.17
2017-01-07T11:48:07.593Z,969.19
2017-01-07T11:49:08.169Z,969.14
2017-01-07T11:50:07.799Z,969.17
2017-01-07T11:51:07.530Z,969.09
2017-01-07T11:52:08.407Z,969.10
2017-01-07T11:53:07.972Z,969.08
2017-01-07T11:54:07.529Z,969.04
2017-01-07T11:56:08.388Z,969.00
2017-01-07T11:57:08.018Z,969.03
2017-01-07T11:58:07.597Z,969.03
2017-01-07T11:59:08.191Z,969.00
2017-01-07T12:00:08.640Z,968.92
2017-01-07T12:01:09.069Z,968.93
2017-01-07T12:02:08.563Z,968.92
2017-01-07T12:03:08.448Z,968.90
2017-01-07T12:04:08.034Z,968.94
2017-01-07T12:05:08.523Z,968.99
2017-01-07T12:06:08.022Z,968.98
2017-01-07T12:07:07.586Z,968.97
2017-01-07T12:08:09.061Z,968.92
2017-01-07T12:09:08.492Z,968.96
2017-01-07T12:10:08.017Z,968.96
2017-01-07T12:11:07.546Z,968.98
2017-01-07T12:12:09.184Z,968.90
2017-01-07T12:13:08.665Z,968.92
2017-01-07T12:14:08.245Z,968.90
2017-01-07T12:15:08.040Z,968.91
2017-01-07T12:16:07.549Z,968.89
2017-01-07T12:17:08.209Z,968.88
2017-01-07T12:18:07.724Z,968.82
2017-01-07T12:19:08.192Z,968.83
2017-01-07T12:20:07.602Z,968.77
2017-01-07T12:21:08.260Z,968.76
2017-01-07T12:22:07.719Z,968.72
2017-01-07T12:23:08.275Z,968.70
2017-01-07T12:24:07.903Z,968.70
2017-01-07T12:25:07.551Z,968.71
2017-01-07T12:26:08.395Z,968.67
2017-01-07T12:27:07.958Z,968.63
2017-01-07T12:28:07.541Z,968.68
2017-01-07T12:29:08.066Z,968.70
2017-01-07T12:30:07.761Z,968.72